Time;durP1;ratioP1;P1;durP2;ratioP2;P2;SDS_P1;SDS_P2;PMS_P1;PMS_P2;Temp;Humidity;BMP_temperature;BMP_pressure;BME280_temperature;BME280_humidity;BME280_pressure;Samples;Min_cycle;Max_cycle;Signal;HPM_P1;HPM_P2
2021/05/28 00:01:50;;;;;;;6.45;5.95;;;;;;;10.78;69.23;100330.44;10500523;28;20041;-72
2021/05/28 00:06:51;;;;;;;5.90;5.50;;;;;;;10.78;69.47;100329.56;10484326;28;20052;-71
2021/05/28 00:11:53;;;;;;;5.85;5.45;;;;;;;10.78;69.32;100332.19;10499857;28;20486;-72
2021/05/28 00:16:55;;;;;;;6.63;6.13;;;;;;;10.79;69.33;100323.41;10500451;28;20054;-71
2021/05/28 00:21:56;;;;;;;5.88;5.38;;;;;;;10.76;69.48;100320.88;10482303;28;20052;-73
2021/05/28 00:26:58;;;;;;;5.47;5.07;;;;;;;10.75;69.60;100327.88;10482454;28;20044;-73
2021/05/28 00:32:02;;;;;;;5.72;5.32;;;;;;;10.71;69.29;100333.25;10483166;28;20537;-73
2021/05/28 00:37:04;;;;;;;6.32;5.90;;;;;;;10.64;69.94;100337.84;10500358;28;20054;-72
2021/05/28 00:42:06;;;;;;;6.20;5.80;;;;;;;10.73;69.41;100340.22;10500397;28;20065;-72
2021/05/28 00:47:08;;;;;;;7.68;7.18;;;;;;;10.60;70.12;100337.06;10500295;28;20041;-74
2021/05/28 00:52:13;;;;;;;7.40;6.70;;;;;;;10.58;70.19;100332.72;10501025;28;20033;-73
2021/05/28 00:57:15;;;;;;;7.28;6.57;;;;;;;10.59;69.96;100335.34;10505507;28;20059;-74
2021/05/28 01:02:17;;;;;;;7.05;6.07;;;;;;;10.66;69.79;100337.78;10488671;28;20036;-74
2021/05/28 01:07:19;;;;;;;6.85;6.35;;;;;;;10.60;70.04;100339.69;10504621;28;20051;-74
2021/05/28 01:12:20;;;;;;;6.25;5.75;;;;;;;10.53;70.44;100347.75;10504917;28;20048;-73
2021/05/28 01:17:22;;;;;;;7.43;6.93;;;;;;;10.60;70.02;100339.69;10504759;28;20136;-73
2021/05/28 01:22:24;;;;;;;6.55;6.03;;;;;;;10.63;69.90;100341.38;10558254;22;20032;-70
2021/05/28 01:27:27;;;;;;;7.22;6.78;;;;;;;10.62;70.06;100344.88;10588107;28;20074;-70
2021/05/28 01:32:29;;;;;;;7.05;6.45;;;;;;;10.49;70.74;100348.75;10545248;28;20104;-71
2021/05/28 01:37:31;;;;;;;7.70;6.43;;;;;;;10.49;70.63;100354.88;10545238;28;20068;-70
2021/05/28 01:42:33;;;;;;;6.63;6.13;;;;;;;10.61;70.25;100361.56;10544913;28;20040;-71
2021/05/28 01:47:34;;;;;;;7.07;6.60;;;;;;;10.51;70.67;100374.09;10545504;28;20110;-71
2021/05/28 01:52:36;;;;;;;6.45;5.95;;;;;;;10.59;70.37;100371.28;10544482;28;20044;-70
2021/05/28 01:57:39;;;;;;;7.05;6.32;;;;;;;10.59;70.32;100366.88;10545024;28;20040;-70
2021/05/28 02:02:41;;;;;;;6.43;5.93;;;;;;;10.49;70.78;100373.28;10543282;28;20074;-71
2021/05/28 02:07:43;;;;;;;8.10;6.55;;;;;;;10.50;70.99;100371.53;10544504;28;20404;-71
2021/05/28 02:12:44;;;;;;;6.75;6.22;;;;;;;10.41;71.40;100370.00;10543552;28;20046;-71
2021/05/28 02:17:49;;;;;;;6.45;5.95;;;;;;;10.52;70.96;100361.81;10543977;28;20119;-71
2021/05/28 02:22:51;;;;;;;7.00;6.45;;;;;;;10.60;71.14;100362.47;10543786;28;20441;-70
2021/05/28 02:27:53;;;;;;;7.65;7.07;;;;;;;10.60;71.45;100363.34;10543521;28;20462;-70
2021/05/28 02:32:55;;;;;;;7.95;7.25;;;;;;;10.57;71.42;100359.91;10508211;28;20489;-70
2021/05/28 02:37:57;;;;;;;9.23;8.30;;;;;;;10.55;71.65;100359.13;10524985;28;20105;-70
2021/05/28 02:42:58;;;;;;;9.25;8.55;;;;;;;10.34;72.85;100368.41;10542511;28;20090;-70
2021/05/28 02:48:00;;;;;;;9.93;9.05;;;;;;;10.28;73.24;100373.84;10542229;28;20048;-70
2021/05/28 02:53:02;;;;;;;9.85;9.23;;;;;;;10.32;73.02;100380.75;10542151;28;20469;-71
2021/05/28 02:58:05;;;;;;;9.00;8.23;;;;;;;10.44;72.68;100372.53;10541978;28;20047;-71
2021/05/28 03:03:07;;;;;;;9.43;8.73;;;;;;;10.42;72.54;100384.00;10542115;28;20039;-70
2021/05/28 03:08:08;;;;;;;10.05;9.35;;;;;;;10.49;72.40;100385.53;10541579;28;20075;-70
2021/05/28 03:13:12;;;;;;;9.95;9.25;;;;;;;10.43;72.71;100389.19;10541198;28;20062;-70
2021/05/28 03:18:18;;;;;;;9.90;9.27;;;;;;;10.54;72.17;100388.94;10541155;28;20430;-70
2021/05/28 03:23:20;;;;;;;9.52;8.73;;;;;;;10.56;72.10;100389.75;10540868;28;20085;-71
2021/05/28 03:28:21;;;;;;;10.82;9.98;;;;;;;10.41;73.17;100396.28;10540789;28;20188;-70
2021/05/28 03:33:23;;;;;;;10.60;9.75;;;;;;;10.52;72.28;100401.25;10540348;28;20050;-70
2021/05/28 03:38:25;;;;;;;10.98;10.00;;;;;;;10.61;71.91;100395.75;10522593;28;20505;-70
2021/05/28 03:43:27;;;;;;;10.90;10.00;;;;;;;10.48;72.60;100399.59;10540347;28;20078;-72
2021/05/28 03:48:29;;;;;;;9.95;9.15;;;;;;;10.56;72.49;100410.78;10542097;28;20048;-71
2021/05/28 03:53:31;;;;;;;10.85;10.07;;;;;;;10.63;71.92;100406.25;10540510;28;20561;-71
2021/05/28 03:58:32;;;;;;;10.18;9.38;;;;;;;10.48;72.39;100413.59;10540407;28;20044;-71
2021/05/28 04:03:35;;;;;;;9.63;8.93;;;;;;;10.57;72.05;100413.34;10539908;28;20470;-71
2021/05/28 04:08:36;;;;;;;11.60;10.80;;;;;;;10.48;74.04;100424.09;10540823;28;20055;-71
2021/05/28 04:13:38;;;;;;;11.65;10.90;;;;;;;10.36;75.15;100421.81;10522177;28;20036;-71
2021/05/28 04:18:40;;;;;;;12.65;11.75;;;;;;;10.26;75.60;100425.53;10540712;28;20048;-71
2021/05/28 04:23:42;;;;;;;11.00;10.30;;;;;;;10.37;76.12;100422.66;10521358;28;20056;-72
2021/05/28 04:28:44;;;;;;;11.35;10.45;;;;;;;10.48;75.08;100424.09;10543936;28;20040;-72
2021/05/28 04:33:46;;;;;;;11.43;10.63;;;;;;;10.35;76.00;100431.41;10547431;28;20394;-72
2021/05/28 04:38:48;;;;;;;10.90;10.20;;;;;;;10.44;75.36;100426.84;10547011;28;20113;-72
2021/05/28 04:43:49;;;;;;;15.73;11.20;;;;;;;10.61;75.17;100430.78;10548049;28;20085;-73
2021/05/28 04:48:51;;;;;;;12.48;11.57;;;;;;;10.65;75.28;100446.47;10529044;28;20044;-71
2021/05/28 04:53:53;;;;;;;12.02;11.13;;;;;;;10.66;74.63;100445.56;10530157;28;20420;-71
2021/05/28 04:58:54;;;;;;;12.98;12.07;;;;;;;10.75;75.12;100451.44;10547296;28;20117;-71
2021/05/28 05:03:56;;;;;;;14.00;12.88;;;;;;;10.58;76.34;100453.66;10546928;28;20040;-70
2021/05/28 05:08:58;;;;;;;14.07;13.18;;;;;;;10.42;76.66;100453.19;10547739;28;20055;-70
2021/05/28 05:13:59;;;;;;;15.30;13.98;;;;;;;10.48;76.73;100455.66;10546791;28;20126;-70
2021/05/28 05:19:01;;;;;;;11.85;11.05;;;;;;;10.67;76.35;100463.06;10529082;28;20425;-70
2021/05/28 05:24:03;;;;;;;11.88;11.18;;;;;;;10.70;76.21;100469.13;10528565;28;20119;-70
2021/05/28 05:29:06;;;;;;;11.50;10.80;;;;;;;10.67;76.06;100470.94;10547475;28;20489;-70
2021/05/28 05:34:08;;;;;;;11.20;10.50;;;;;;;10.78;76.14;100484.72;10546850;28;20036;-70
2021/05/28 05:39:09;;;;;;;10.20;9.50;;;;;;;10.32;78.08;100486.69;10546708;28;20548;-70
2021/05/28 05:44:11;;;;;;;7.65;7.15;;;;;;;10.50;77.17;100498.53;10546415;28;20081;-70
2021/05/28 05:49:13;;;;;;;4.60;4.30;;;;;;;10.25;77.41;100508.75;10511702;28;20052;-71
2021/05/28 05:54:15;;;;;;;6.55;2.70;;;;;;;9.99;76.60;100519.81;10545349;28;20040;-70
2021/05/28 05:59:16;;;;;;;2.80;2.33;;;;;;;9.88;76.94;100516.56;10545132;28;20565;-70
2021/05/28 06:04:18;;;;;;;3.20;3.00;;;;;;;10.15;76.97;100519.47;10543030;28;20501;-70
2021/05/28 06:09:20;;;;;;;3.13;2.92;;;;;;;10.01;77.12;100509.28;10543656;28;20055;-70
2021/05/28 06:14:22;;;;;;;4.28;3.85;;;;;;;10.35;77.40;100517.28;10543249;28;20043;-70
2021/05/28 06:19:23;;;;;;;3.00;2.75;;;;;;;10.74;75.10;100520.72;10542572;28;20044;-70
2021/05/28 06:24:25;;;;;;;3.60;3.05;;;;;;;10.69;74.84;100522.63;10542555;28;20040;-70
2021/05/28 06:29:27;;;;;;;3.85;3.00;;;;;;;10.74;74.61;100522.50;10543704;28;20069;-70
2021/05/28 06:34:28;;;;;;;5.00;4.20;;;;;;;10.45;76.99;100531.97;10543145;28;20078;-70
2021/05/28 06:39:30;;;;;;;5.40;4.90;;;;;;;10.82;76.96;100529.28;10542539;28;20040;-70
2021/05/28 06:44:32;;;;;;;4.75;4.35;;;;;;;10.95;75.83;100536.88;10543462;28;20116;-69
2021/05/28 06:49:33;;;;;;;5.35;4.78;;;;;;;10.90;76.34;100550.16;10542268;28;20056;-70
2021/05/28 06:54:36;;;;;;;4.65;4.25;;;;;;;11.05;74.79;100546.25;10542377;28;20036;-70
2021/05/28 06:59:38;;;;;;;4.35;4.05;;;;;;;10.98;74.65;100553.47;10543046;28;20449;-70
2021/05/28 07:04:39;;;;;;;5.78;5.38;;;;;;;10.84;76.47;100552.91;10523805;28;20072;-70
2021/05/28 07:09:41;;;;;;;5.57;5.28;;;;;;;11.12;75.11;100561.00;10541854;28;20052;-70
2021/05/28 07:14:44;;;;;;;6.72;6.32;;;;;;;11.00;76.23;100548.16;10541432;28;20040;-70
2021/05/28 07:19:45;;;;;;;6.43;6.03;;;;;;;11.27;75.09;100565.00;10540913;28;20453;-71
2021/05/28 07:24:47;;;;;;;7.10;6.50;;;;;;;11.55;74.90;100570.38;10543837;28;20039;-69
2021/05/28 07:29:49;;;;;;;5.53;5.03;;;;;;;11.55;72.63;100562.47;10540072;28;20405;-69
2021/05/28 07:34:51;;;;;;;5.55;5.25;;;;;;;11.71;74.61;100573.47;10539788;28;20040;-68
2021/05/28 07:39:53;;;;;;;5.80;5.40;;;;;;;11.78;73.56;100569.75;10539665;28;20101;-69
2021/05/28 07:44:54;;;;;;;5.00;4.60;;;;;;;12.02;71.38;100568.22;10540734;28;20036;-69
2021/05/28 07:49:56;;;;;;;4.35;4.03;;;;;;;12.23;71.46;100569.38;10539369;28;20480;-69
2021/05/28 07:54:58;;;;;;;4.47;3.95;;;;;;;12.06;70.83;100565.44;10539429;28;20496;-70
2021/05/28 07:59:59;;;;;;;3.67;3.38;;;;;;;12.03;71.36;100570.78;10539325;28;20044;-69
2021/05/28 08:05:02;;;;;;;3.53;3.22;;;;;;;12.14;70.07;100578.41;10546192;28;20043;-69
2021/05/28 08:10:04;;;;;;;3.92;3.63;;;;;;;12.08;69.22;100575.94;10547479;28;20071;-69
2021/05/28 08:15:07;;;;;;;4.75;4.45;;;;;;;11.89;70.21;100572.13;10529279;28;20525;-69
2021/05/28 08:20:09;;;;;;;5.10;4.75;;;;;;;11.81;72.09;100575.78;10546959;28;20039;-69
2021/05/28 08:25:12;;;;;;;4.95;4.55;;;;;;;12.16;70.18;100575.72;10548875;28;20036;-72
2021/05/28 08:30:16;;;;;;;4.05;3.80;;;;;;;12.48;70.04;100574.72;10547278;28;20489;-71
2021/05/28 08:35:18;;;;;;;3.70;3.17;;;;;;;12.78;68.73;100586.97;10528902;28;20051;-73
2021/05/28 08:40:21;;;;;;;2.28;2.08;;;;;;;12.75;66.33;100581.81;10546514;28;20042;-72
2021/05/28 08:45:22;;;;;;;2.15;2.00;;;;;;;12.89;66.21;100581.34;10547563;28;20085;-73
2021/05/28 08:50:25;;;;;;;2.60;1.60;;;;;;;13.32;66.35;100564.94;10546565;28;20493;-73
2021/05/28 08:55:27;;;;;;;1.10;0.90;;;;;;;13.92;60.73;100573.38;10548336;28;20036;-71
2021/05/28 09:00:29;;;;;;;1.15;0.98;;;;;;;14.02;62.54;100566.84;10529011;28;20123;-72
2021/05/28 09:05:36;;;;;;;1.05;0.70;;;;;;;14.24;60.73;100577.47;10548038;28;20489;-72
2021/05/28 09:10:42;;;;;;;1.33;1.10;;;;;;;14.00;61.63;100579.25;10547533;28;20048;-70
2021/05/28 09:15:46;;;;;;;1.25;1.10;;;;;;;13.74;60.23;100582.84;10545654;28;20032;-72
2021/05/28 09:20:56;;;;;;;1.75;0.98;;;;;;;14.00;60.07;100581.91;10545029;28;20390;-71
2021/05/28 09:26:07;;;;;;;1.45;0.95;;;;;;;14.26;60.48;100575.63;10545611;28;20059;-70
2021/05/28 09:31:19;;;;;;;2.05;1.00;;;;;;;14.17;59.05;100577.78;10544204;28;20106;-70
2021/05/28 09:36:24;;;;;;;1.15;1.00;;;;;;;14.82;59.25;100571.69;10525912;28;20051;-70
2021/05/28 09:41:58;;;;;;;2.28;1.00;;;;;;;15.19;57.17;100563.09;10543585;28;20036;-71
2021/05/28 09:47:15;;;;;;;1.08;0.98;;;;;;;15.33;54.29;100557.22;10359570;28;20056;-69
2021/05/28 09:52:27;;;;;;;0.75;0.70;;;;;;;15.33;54.21;100558.06;10357963;28;20046;-70
2021/05/28 09:57:41;;;;;;;2.80;1.13;;;;;;;15.79;54.67;100560.50;10375811;28;20518;-70
2021/05/28 10:03:08;;;;;;;0.75;0.75;;;;;;;16.14;52.41;100564.19;10374557;28;20049;-70
2021/05/28 10:08:11;;;;;;;1.73;0.70;;;;;;;15.63;54.52;100570.91;10373554;28;20077;-69
2021/05/28 10:13:16;;;;;;;1.40;0.60;;;;;;;15.49;51.29;100557.38;10374745;28;20412;-70
2021/05/28 10:18:26;;;;;;;1.02;0.63;;;;;;;16.22;50.18;100553.25;10375698;28;20081;-71
2021/05/28 10:29:28;;;;;;;2.05;0.60;;;;;;;15.98;51.66;100560.53;10441184;28;20053;-71
2021/05/28 10:35:13;;;;;;;0.60;0.47;;;;;;;14.58;55.13;100597.34;10454672;28;20048;-72
2021/05/28 10:40:28;;;;;;;0.60;0.30;;;;;;;13.09;59.90;100601.78;10332494;28;20055;-70
2021/05/28 10:45:57;;;;;;;0.50;0.40;;;;;;;11.94;62.85;100623.75;10332264;28;20074;-70
2021/05/28 10:50:59;;;;;;;0.47;0.35;;;;;;;11.72;66.14;100633.13;10331858;28;20053;-70
2021/05/28 10:56:06;;;;;;;1.20;0.40;;;;;;;11.58;67.82;100639.63;10332366;28;20058;-70
2021/05/28 11:01:35;;;;;;;0.47;0.40;;;;;;;11.63;66.44;100628.97;10333037;28;20058;-70
2021/05/28 11:06:55;;;;;;;0.95;0.40;;;;;;;11.73;66.73;100622.56;10400219;28;20064;-70
2021/05/28 11:11:57;;;;;;;0.32;0.30;;;;;;;12.11;65.55;100621.50;10413106;28;20045;-71
2021/05/28 11:16:59;;;;;;;1.45;0.60;;;;;;;12.23;64.33;100615.03;10540665;28;20060;-69
2021/05/28 11:22:04;;;;;;;1.08;0.50;;;;;;;12.45;62.34;100609.13;10540772;28;20040;-70
2021/05/28 11:27:14;;;;;;;1.10;0.60;;;;;;;12.33;62.74;100615.63;10542367;28;20105;-69
2021/05/28 11:32:33;;;;;;;0.77;0.68;;;;;;;12.60;62.11;100608.63;10541814;28;20072;-70
2021/05/28 11:37:49;;;;;;;0.98;0.70;;;;;;;12.96;60.55;100606.59;10540591;28;20071;-70
2021/05/28 11:42:52;;;;;;;0.60;0.60;;;;;;;13.25;59.21;100594.28;10540880;28;20047;-70
2021/05/28 11:47:54;;;;;;;1.10;0.73;;;;;;;13.23;60.53;100593.44;10522243;28;20044;-70
2021/05/28 11:53:02;;;;;;;7.13;0.88;;;;;;;13.67;57.75;100588.41;10540175;28;20059;-70
2021/05/28 11:58:04;;;;;;;1.05;0.95;;;;;;;13.67;59.08;100593.69;10540653;28;20493;-71
2021/05/28 12:03:06;;;;;;;3.42;0.80;;;;;;;13.84;58.59;100604.50;10539735;28;20047;-69
2021/05/28 12:08:11;;;;;;;1.58;0.93;;;;;;;13.80;58.46;100594.97;10522712;28;20051;-71
2021/05/28 12:13:15;;;;;;;1.88;1.20;;;;;;;13.98;57.87;100593.44;10539981;28;20543;-70
2021/05/28 12:18:40;;;;;;;1.13;1.02;;;;;;;14.09;57.40;100597.41;10540357;28;20611;-70
2021/05/28 12:24:01;;;;;;;1.48;1.00;;;;;;;14.24;58.59;100585.38;10521874;28;20068;-70
2021/05/28 12:29:03;;;;;;;1.35;1.17;;;;;;;14.66;58.75;100586.47;10540205;28;20051;-71
2021/05/28 12:34:09;;;;;;;1.90;1.20;;;;;;;14.76;56.33;100577.25;10522131;28;20048;-70
2021/05/28 12:39:13;;;;;;;1.40;1.00;;;;;;;15.17;57.01;100572.88;10540805;28;20063;-70
2021/05/28 12:44:17;;;;;;;1.73;1.30;;;;;;;15.16;55.80;100568.50;10540078;28;20046;-70
2021/05/28 12:49:19;;;;;;;1.35;1.13;;;;;;;15.44;55.46;100554.09;10543237;28;20073;-70
2021/05/28 12:54:29;;;;;;;1.10;0.95;;;;;;;15.45;55.77;100559.34;10529208;28;20054;-70
2021/05/28 12:59:33;;;;;;;0.93;0.50;;;;;;;15.19;52.82;100565.75;10547650;28;20485;-69
2021/05/28 13:04:52;;;;;;;1.38;0.70;;;;;;;14.75;53.65;100572.88;10547387;28;20059;-68
2021/05/28 13:09:54;;;;;;;0.80;0.70;;;;;;;14.14;56.51;100584.88;10547181;28;20051;-70
2021/05/28 13:14:56;;;;;;;4.78;1.05;;;;;;;13.97;60.28;100583.78;10528398;28;20040;-70
2021/05/28 13:20:13;;;;;;;0.85;0.75;;;;;;;13.94;58.29;100576.81;10545743;28;20044;-71
2021/05/28 13:25:37;;;;;;;0.60;0.60;;;;;;;13.74;59.53;100579.34;10462378;22;20517;-74
2021/05/28 13:30:40;;;;;;;0.70;0.70;;;;;;;13.91;55.70;100563.75;10496500;28;20412;-75
2021/05/28 13:35:50;;;;;;;1.23;0.50;;;;;;;14.01;56.79;100559.84;10510984;28;20048;-75
2021/05/28 13:40:52;;;;;;;2.08;0.65;;;;;;;14.55;55.32;100549.84;10512852;28;20086;-74
2021/05/28 13:45:54;;;;;;;0.50;0.50;;;;;;;15.01;54.06;100548.84;10508954;28;20075;-74
2021/05/28 13:50:56;;;;;;;1.23;0.57;;;;;;;15.57;51.50;100542.88;10509958;28;20040;-74
2021/05/28 13:56:03;;;;;;;0.47;0.47;;;;;;;15.80;50.35;100530.41;10509616;28;20071;-75
2021/05/28 14:01:05;;;;;;;0.73;0.60;;;;;;;16.02;49.49;100517.88;10512511;28;20046;-73
2021/05/28 14:06:07;;;;;;;1.60;0.55;;;;;;;15.82;50.33;100526.78;10510364;28;20055;-72
2021/05/28 14:11:09;;;;;;;0.50;0.50;;;;;;;15.53;49.78;100514.78;10490272;28;20059;-73
2021/05/28 14:16:12;;;;;;;0.60;0.52;;;;;;;15.32;51.03;100524.56;10508367;28;20047;-72
2021/05/28 14:21:15;;;;;;;0.60;0.60;;;;;;;15.27;51.02;100526.56;10507190;28;20131;-72
2021/05/28 14:26:16;;;;;;;1.67;0.57;;;;;;;15.36;50.99;100520.84;10509302;28;20064;-72
2021/05/28 14:31:18;;;;;;;2.17;0.68;;;;;;;15.34;52.12;100522.69;10506322;28;20056;-73
2021/05/28 14:36:27;;;;;;;3.20;0.73;;;;;;;15.67;50.32;100523.94;10505942;28;20044;-73
2021/05/28 14:41:29;;;;;;;1.83;0.70;;;;;;;15.26;50.79;100516.00;10503742;28;20546;-71
2021/05/28 14:46:31;;;;;;;1.02;0.68;;;;;;;15.25;51.78;100509.84;10506166;28;20071;-73
2021/05/28 14:51:33;;;;;;;0.90;0.75;;;;;;;15.89;49.93;100492.88;10502432;28;20075;-71
2021/05/28 14:56:40;;;;;;;2.22;0.80;;;;;;;15.23;50.57;100490.53;10504750;28;20037;-72
2021/05/28 15:01:45;;;;;;;1.00;0.85;;;;;;;14.87;52.57;100492.94;10504042;28;20040;-73
2021/05/28 15:06:47;;;;;;;1.63;0.63;;;;;;;14.98;51.52;100488.06;10485866;28;20102;-70
2021/05/28 15:11:49;;;;;;;0.70;0.70;;;;;;;15.32;51.09;100479.53;10501728;28;20084;-71
2021/05/28 15:16:51;;;;;;;1.77;0.70;;;;;;;15.23;51.05;100476.41;10501746;28;20040;-70
2021/05/28 15:21:53;;;;;;;1.15;1.00;;;;;;;14.81;53.06;100480.84;10502042;28;20036;-71
2021/05/28 15:26:54;;;;;;;1.15;0.93;;;;;;;14.53;53.89;100502.31;10502202;28;20048;-71
2021/05/28 15:31:56;;;;;;;2.63;1.00;;;;;;;14.37;55.16;100502.00;10501385;28;20036;-71
2021/05/28 15:36:58;;;;;;;1.13;1.02;;;;;;;14.18;55.83;100495.75;10501633;28;20472;-72
2021/05/28 15:42:00;;;;;;;1.75;1.20;;;;;;;14.80;53.06;100492.38;10500329;28;20136;-73
2021/05/28 15:47:02;;;;;;;1.63;1.00;;;;;;;14.87;53.36;100482.38;10483335;28;20048;-72
2021/05/28 15:52:05;;;;;;;2.22;0.90;;;;;;;15.69;50.20;100472.59;10485034;28;20044;-72
2021/05/28 15:57:07;;;;;;;1.45;0.90;;;;;;;16.35;48.79;100474.78;10501529;28;20174;-72
2021/05/28 16:02:09;;;;;;;0.77;0.60;;;;;;;16.59;46.11;100467.41;10501363;28;20136;-73
2021/05/28 16:07:14;;;;;;;1.30;0.82;;;;;;;15.83;47.49;100466.66;10502126;28;20076;-72
2021/05/28 16:12:15;;;;;;;1.95;0.80;;;;;;;16.11;47.41;100461.78;10504035;28;20381;-72
2021/05/28 16:17:17;;;;;;;2.28;2.10;;;;;;;16.11;48.94;100463.56;10500714;28;20056;-72
2021/05/28 16:22:19;;;;;;;1.48;1.35;;;;;;;15.49;51.82;100470.81;10484667;28;20045;-71
2021/05/28 16:27:21;;;;;;;2.25;1.50;;;;;;;15.23;55.21;100481.69;10508851;28;20119;-72
2021/05/28 16:32:22;;;;;;;4.97;2.03;;;;;;;14.62;58.58;100495.78;10510102;28;20055;-71
2021/05/28 16:37:24;;;;;;;4.15;2.25;;;;;;;13.69;64.17;100517.91;10509486;28;20063;-69
2021/05/28 16:42:28;;;;;;;3.05;2.35;;;;;;;13.29;66.14;100512.28;10508085;28;20033;-71
2021/05/28 16:47:30;;;;;;;3.90;3.03;;;;;;;12.87;69.62;100518.06;10508254;28;20044;-70
2021/05/28 16:52:31;;;;;;;4.43;3.10;;;;;;;12.95;69.93;100509.03;10507534;28;20036;-70
2021/05/28 16:57:33;;;;;;;3.08;2.40;;;;;;;13.32;68.90;100504.22;10508565;28;20409;-70
2021/05/28 17:02:35;;;;;;;2.90;2.42;;;;;;;13.56;68.63;100499.00;10508022;28;20044;-70
2021/05/28 17:07:39;;;;;;;3.53;1.95;;;;;;;13.85;67.49;100514.59;10508252;28;20058;-70
2021/05/28 17:12:41;;;;;;;2.80;1.70;;;;;;;14.09;66.47;100501.41;10490111;28;20551;-71
2021/05/28 17:17:43;;;;;;;3.25;2.20;;;;;;;14.00;65.96;100493.81;10511525;28;20070;-70
2021/05/28 17:22:45;;;;;;;2.17;1.98;;;;;;;13.57;67.42;100514.78;10490470;28;20048;-70
2021/05/28 17:27:47;;;;;;;4.43;2.80;;;;;;;13.00;70.64;100533.47;10506391;28;20036;-71
2021/05/28 17:32:48;;;;;;;3.40;3.08;;;;;;;13.04;71.29;100535.09;10505343;28;20044;-70
2021/05/28 17:37:50;;;;;;;3.53;3.25;;;;;;;13.01;71.88;100551.91;10510167;28;20033;-70
2021/05/28 17:42:53;;;;;;;3.17;2.97;;;;;;;13.04;71.06;100546.53;10508267;28;20044;-71
2021/05/28 17:47:57;;;;;;;3.05;2.00;;;;;;;12.90;68.40;100558.47;10488044;28;20045;-71
2021/05/28 17:52:59;;;;;;;1.83;1.58;;;;;;;12.66;67.46;100560.09;10490590;28;20068;-71
2021/05/28 17:58:01;;;;;;;1.48;1.38;;;;;;;12.48;68.97;100558.91;10510171;28;20043;-71
2021/05/28 18:03:03;;;;;;;2.65;2.45;;;;;;;12.24;70.00;100571.09;10493688;28;20470;-71
2021/05/28 18:08:05;;;;;;;1.92;1.83;;;;;;;12.06;68.88;100569.84;10505862;28;20040;-72
2021/05/28 18:13:07;;;;;;;2.20;2.00;;;;;;;12.03;70.01;100569.94;10505237;28;20044;-71
2021/05/28 18:18:09;;;;;;;1.60;1.50;;;;;;;11.98;69.70;100572.72;10506060;28;20140;-72
2021/05/28 18:23:11;;;;;;;2.42;1.77;;;;;;;11.66;70.37;100586.75;10511714;28;20119;-72
2021/05/28 18:28:18;;;;;;;2.35;1.20;;;;;;;11.61;69.84;100583.38;10492697;28;20033;-72
2021/05/28 18:33:21;;;;;;;1.30;1.20;;;;;;;11.41;70.25;100583.06;10491901;28;20478;-71
2021/05/28 18:38:22;;;;;;;1.15;1.05;;;;;;;11.42;70.67;100587.41;10510036;28;20040;-72
2021/05/28 18:43:24;;;;;;;1.60;1.50;;;;;;;11.61;70.01;100588.66;10506920;28;20127;-72
2021/05/28 18:48:25;;;;;;;1.38;1.02;;;;;;;11.50;70.01;100583.66;10505571;28;20464;-72
2021/05/28 18:53:27;;;;;;;1.25;1.10;;;;;;;11.53;69.49;100591.50;10487165;28;20045;-71
2021/05/28 18:58:29;;;;;;;1.27;1.17;;;;;;;11.38;69.80;100594.53;10468479;28;20048;-71
2021/05/28 19:03:31;;;;;;;1.48;1.38;;;;;;;11.34;69.69;100600.78;10502718;28;20052;-72
2021/05/28 19:08:34;;;;;;;1.75;1.58;;;;;;;11.24;70.70;100620.31;10507969;28;20455;-71
2021/05/28 19:13:38;;;;;;;2.28;1.83;;;;;;;11.17;71.33;100613.50;10506582;28;20037;-71
2021/05/28 19:18:41;;;;;;;2.13;1.75;;;;;;;10.96;72.12;100613.13;10485721;28;20075;-71
2021/05/28 19:23:44;;;;;;;1.27;1.17;;;;;;;10.92;72.04;100615.88;10540761;22;20043;-74
2021/05/28 19:28:45;;;;;;;2.08;1.35;;;;;;;10.91;71.70;100616.78;10546129;28;20051;-75
2021/05/28 19:33:50;;;;;;;1.67;1.40;;;;;;;11.07;70.95;100619.00;10529066;28;20036;-73
2021/05/28 19:38:52;;;;;;;1.55;1.45;;;;;;;10.81;72.96;100624.03;10529006;28;20048;-75
2021/05/28 19:43:54;;;;;;;2.50;1.90;;;;;;;10.86;72.38;100620.38;10529736;28;20043;-75
2021/05/28 19:48:56;;;;;;;2.38;2.17;;;;;;;10.51;73.21;100639.56;10528864;28;20501;-75
2021/05/28 19:59:22;;;;;;;2.25;1.70;;;;;;;10.49;72.46;100645.75;10514202;28;20063;-74
2021/05/28 20:04:24;;;;;;;4.32;2.20;;;;;;;10.07;74.34;100649.22;10536904;28;20066;-75
2021/05/28 20:09:26;;;;;;;2.53;2.33;;;;;;;10.13;73.71;100652.59;10535418;28;20484;-75
2021/05/28 20:14:34;;;;;;;2.47;2.28;;;;;;;10.18;73.56;100651.66;10534979;28;20041;-74
2021/05/28 20:19:36;;;;;;;2.63;2.42;;;;;;;9.99;73.73;100651.13;10554117;28;20044;-75
2021/05/28 20:24:38;;;;;;;2.22;2.13;;;;;;;9.79;74.11;100653.28;10535015;28;20056;-74
2021/05/28 20:29:41;;;;;;;2.25;2.00;;;;;;;9.87;73.46;100653.97;10552767;28;20055;-75
2021/05/28 20:34:42;;;;;;;2.92;2.53;;;;;;;9.59;74.48;100659.75;10552810;28;20042;-73
2021/05/28 20:39:44;;;;;;;3.72;2.50;;;;;;;9.49;74.89;100668.69;10533734;28;20056;-74
2021/05/28 20:44:46;;;;;;;2.80;2.47;;;;;;;9.50;73.94;100666.91;10552493;28;20045;-74
2021/05/28 20:49:47;;;;;;;2.47;2.28;;;;;;;9.38;74.60;100661.88;10551829;28;20093;-73
2021/05/28 20:54:49;;;;;;;2.70;2.50;;;;;;;9.53;73.83;100667.72;10551508;28;20047;-73
2021/05/28 20:59:51;;;;;;;3.13;2.80;;;;;;;9.59;73.97;100662.38;10552609;28;20044;-73
2021/05/28 21:04:56;;;;;;;3.38;2.90;;;;;;;9.55;74.38;100665.06;10552996;28;20036;-74
2021/05/28 21:10:05;;;;;;;4.22;3.78;;;;;;;9.24;75.70;100664.72;10530369;28;20044;-74
2021/05/28 21:15:08;;;;;;;2.60;2.40;;;;;;;9.09;76.07;100661.47;10549749;28;20105;-74
2021/05/28 21:20:10;;;;;;;2.42;1.90;;;;;;;9.17;74.81;100665.72;10531672;28;20048;-76
2021/05/28 21:25:12;;;;;;;2.22;2.03;;;;;;;9.20;74.41;100665.66;10550865;28;20489;-74
2021/05/28 21:30:14;;;;;;;2.42;1.85;;;;;;;9.12;74.50;100675.41;10551362;28;20039;-74
2021/05/28 21:35:18;;;;;;;7.53;2.33;;;;;;;8.93;75.10;100678.31;10549264;28;20044;-74
2021/05/28 21:40:20;;;;;;;2.08;1.80;;;;;;;8.81;74.97;100666.25;10549358;28;20044;-74
2021/05/28 21:45:23;;;;;;;1.70;1.60;;;;;;;8.79;74.94;100667.16;10551015;28;20040;-75
2021/05/28 21:50:26;;;;;;;2.05;1.80;;;;;;;8.76;75.48;100669.81;10550095;28;20044;-74
2021/05/28 21:55:27;;;;;;;2.05;1.85;;;;;;;8.79;75.79;100678.50;10550211;28;20062;-73
2021/05/28 22:00:35;;;;;;;3.75;3.15;;;;;;;8.82;76.04;100686.34;10515267;28;20062;-73
2021/05/28 22:05:37;;;;;;;3.78;3.47;;;;;;;8.93;76.53;100696.66;10548977;28;20040;-74
2021/05/28 22:10:40;;;;;;;3.20;2.97;;;;;;;9.02;76.60;100701.75;10531069;28;20169;-75
2021/05/28 22:15:43;;;;;;;4.22;3.83;;;;;;;8.99;77.04;100696.59;10548338;28;20040;-74
2021/05/28 22:20:46;;;;;;;3.80;3.50;;;;;;;8.97;76.55;100693.09;10547146;28;20116;-74
2021/05/28 22:25:48;;;;;;;7.28;3.60;;;;;;;8.94;76.99;100695.78;10548010;28;20041;-73
2021/05/28 22:36:12;;;;;;;4.55;4.20;;;;;;;8.70;76.99;100706.59;10547414;28;20127;-73
2021/05/28 22:41:14;;;;;;;4.57;4.18;;;;;;;8.82;76.40;100699.44;10529502;28;20230;-74
2021/05/28 22:51:20;;;;;;;3.95;3.65;;;;;;;8.62;76.56;100701.47;10548499;28;20075;-73
2021/05/28 22:56:25;;;;;;;5.38;4.88;;;;;;;8.39;77.04;100709.63;10512267;28;20485;-75
2021/05/28 23:01:29;;;;;;;4.75;4.15;;;;;;;8.59;76.26;100709.38;10528954;28;20460;-75
2021/05/28 23:06:33;;;;;;;3.85;3.25;;;;;;;8.39;76.32;100720.09;10545896;28;20040;-74
2021/05/28 23:16:40;;;;;;;4.18;3.88;;;;;;;8.41;76.18;100713.09;10546266;28;20071;-73
2021/05/28 23:21:43;;;;;;;4.68;4.25;;;;;;;8.42;75.47;100709.59;10545953;28;20036;-74
2021/05/28 23:26:45;;;;;;;4.47;4.18;;;;;;;8.34;75.49;100698.28;10528128;28;20055;-74
2021/05/28 23:31:47;;;;;;;4.35;4.05;;;;;;;8.22;75.86;100694.06;10547192;28;20054;-73
2021/05/28 23:36:49;;;;;;;4.70;4.40;;;;;;;8.16;75.82;100695.91;10527661;28;20040;-73
2021/05/28 23:41:50;;;;;;;4.30;4.00;;;;;;;8.04;76.46;100702.13;10544873;28;20048;-73